sensor_id;sensor_type;location;lat;lon;timestamp;temperature;humidity
5172;DHT22;2605;49.770;9.868;2023-06-14T00:00:31;15.40;99.90
5172;DHT22;2605;49.770;9.868;2023-06-14T00:02:56;15.30;99.90
5172;DHT22;2605;49.770;9.868;2023-06-14T00:05:23;15.30;99.90
5172;DHT22;2605;49.770;9.868;2023-06-14T00:07:49;15.20;99.90
5172;DHT22;2605;49.770;9.868;2023-06-14T00:10:18;15.20;99.90
5172;DHT22;2605;49.770;9.868;2023-06-14T00:12:44;15.10;99.90
5172;DHT22;2605;49.770;9.868;2023-06-14T00:15:10;15.10;99.90
5172;DHT22;2605;49.770;9.868;2023-06-14T00:17:36;15.10;99.90
5172;DHT22;2605;49.770;9.868;2023-06-14T00:20:03;15.20;99.90
5172;DHT22;2605;49.770;9.868;2023-06-14T00:22:32;15.20;99.90
5172;DHT22;2605;49.770;9.868;2023-06-14T00:24:58;15.20;99.90
5172;DHT22;2605;49.770;9.868;2023-06-14T00:27:23;15.20;99.90
5172;DHT22;2605;49.770;9.868;2023-06-14T00:29:50;15.20;99.90
5172;DHT22;2605;49.770;9.868;2023-06-14T00:32:15;15.20;99.90
5172;DHT22;2605;49.770;9.868;2023-06-14T00:34:41;15.10;99.90
5172;DHT22;2605;49.770;9.868;2023-06-14T00:37:06;15.10;99.90
5172;DHT22;2605;49.770;9.868;2023-06-14T00:39:32;15.00;99.90
5172;DHT22;2605;49.770;9.868;2023-06-14T00:41:57;15.00;99.90
5172;DHT22;2605;49.770;9.868;2023-06-14T00:44:24;14.90;99.90
5172;DHT22;2605;49.770;9.868;2023-06-14T00:46:49;14.90;99.90
5172;DHT22;2605;49.770;9.868;2023-06-14T00:49:16;14.90;99.90
5172;DHT22;2605;49.770;9.868;2023-06-14T00:51:43;14.90;99.90
5172;DHT22;2605;49.770;9.868;2023-06-14T00:54:08;15.00;99.90
5172;DHT22;2605;49.770;9.868;2023-06-14T00:56:37;15.00;99.90
5172;DHT22;2605;49.770;9.868;2023-06-14T00:59:04;15.00;99.90
5172;DHT22;2605;49.770;9.868;2023-06-14T01:01:30;15.10;99.90
5172;DHT22;2605;49.770;9.868;2023-06-14T01:03:58;15.00;99.90
5172;DHT22;2605;49.770;9.868;2023-06-14T01:06:33;15.00;99.90
5172;DHT22;2605;49.770;9.868;2023-06-14T01:09:28;15.00;99.90
5172;DHT22;2605;49.770;9.868;2023-06-14T01:12:09;14.90;99.90
5172;DHT22;2605;49.770;9.868;2023-06-14T01:14:38;14.90;99.90
5172;DHT22;2605;49.770;9.868;2023-06-14T01:17:04;14.80;99.90
5172;DHT22;2605;49.770;9.868;2023-06-14T01:19:30;14.80;99.90
5172;DHT22;2605;49.770;9.868;2023-06-14T01:21:57;14.80;99.90
5172;DHT22;2605;49.770;9.868;2023-06-14T01:24:24;14.80;99.90
5172;DHT22;2605;49.770;9.868;2023-06-14T01:26:52;14.70;99.90
5172;DHT22;2605;49.770;9.868;2023-06-14T01:29:22;14.70;99.90
5172;DHT22;2605;49.770;9.868;2023-06-14T01:31:48;14.60;99.90
5172;DHT22;2605;49.770;9.868;2023-06-14T01:34:15;14.60;99.90
5172;DHT22;2605;49.770;9.868;2023-06-14T01:36:42;14.50;99.90
5172;DHT22;2605;49.770;9.868;2023-06-14T01:39:10;14.50;99.90
5172;DHT22;2605;49.770;9.868;2023-06-14T01:41:37;14.50;99.90
5172;DHT22;2605;49.770;9.868;2023-06-14T01:44:04;14.50;99.90
5172;DHT22;2605;49.770;9.868;2023-06-14T01:46:30;14.40;99.90
5172;DHT22;2605;49.770;9.868;2023-06-14T01:48:55;14.50;99.90
5172;DHT22;2605;49.770;9.868;2023-06-14T01:51:21;14.50;99.90
5172;DHT22;2605;49.770;9.868;2023-06-14T01:53:47;14.40;99.90
5172;DHT22;2605;49.770;9.868;2023-06-14T01:56:13;14.40;99.90
5172;DHT22;2605;49.770;9.868;2023-06-14T01:58:39;14.40;99.90
5172;DHT22;2605;49.770;9.868;2023-06-14T02:01:05;14.40;99.90
5172;DHT22;2605;49.770;9.868;2023-06-14T02:03:32;14.40;99.90
5172;DHT22;2605;49.770;9.868;2023-06-14T02:05:58;14.30;99.90
5172;DHT22;2605;49.770;9.868;2023-06-14T02:08:23;14.30;99.90
5172;DHT22;2605;49.770;9.868;2023-06-14T02:10:49;14.20;99.90
5172;DHT22;2605;49.770;9.868;2023-06-14T02:13:14;14.20;99.90
5172;DHT22;2605;49.770;9.868;2023-06-14T02:15:40;14.10;99.90
5172;DHT22;2605;49.770;9.868;2023-06-14T02:18:08;14.10;99.90
5172;DHT22;2605;49.770;9.868;2023-06-14T02:20:35;14.00;99.90
5172;DHT22;2605;49.770;9.868;2023-06-14T02:23:01;14.00;99.90
5172;DHT22;2605;49.770;9.868;2023-06-14T02:25:27;14.00;99.90
5172;DHT22;2605;49.770;9.868;2023-06-14T02:27:53;14.00;99.90
5172;DHT22;2605;49.770;9.868;2023-06-14T02:30:20;13.90;99.90
5172;DHT22;2605;49.770;9.868;2023-06-14T02:32:46;13.90;99.90
5172;DHT22;2605;49.770;9.868;2023-06-14T02:35:14;13.80;99.90
5172;DHT22;2605;49.770;9.868;2023-06-14T02:37:40;13.80;99.90
5172;DHT22;2605;49.770;9.868;2023-06-14T02:40:06;13.70;99.90
5172;DHT22;2605;49.770;9.868;2023-06-14T02:42:32;13.70;99.90
5172;DHT22;2605;49.770;9.868;2023-06-14T02:44:57;13.60;99.90
5172;DHT22;2605;49.770;9.868;2023-06-14T02:47:23;13.60;99.90
5172;DHT22;2605;49.770;9.868;2023-06-14T02:49:49;13.50;99.90
5172;DHT22;2605;49.770;9.868;2023-06-14T02:52:15;13.50;99.90
5172;DHT22;2605;49.770;9.868;2023-06-14T02:54:41;13.40;99.90
5172;DHT22;2605;49.770;9.868;2023-06-14T02:57:07;13.40;99.90
5172;DHT22;2605;49.770;9.868;2023-06-14T02:59:33;13.40;99.90
5172;DHT22;2605;49.770;9.868;2023-06-14T03:01:58;13.30;99.90
5172;DHT22;2605;49.770;9.868;2023-06-14T03:04:24;13.30;99.90
5172;DHT22;2605;49.770;9.868;2023-06-14T03:06:51;13.20;99.90
5172;DHT22;2605;49.770;9.868;2023-06-14T03:09:17;13.20;99.90
5172;DHT22;2605;49.770;9.868;2023-06-14T03:11:42;13.20;99.90
5172;DHT22;2605;49.770;9.868;2023-06-14T03:14:08;13.10;99.90
5172;DHT22;2605;49.770;9.868;2023-06-14T03:16:34;13.10;99.90
5172;DHT22;2605;49.770;9.868;2023-06-14T03:18:59;13.00;99.90
5172;DHT22;2605;49.770;9.868;2023-06-14T03:21:25;13.00;99.90
5172;DHT22;2605;49.770;9.868;2023-06-14T03:23:51;13.00;99.90
5172;DHT22;2605;49.770;9.868;2023-06-14T03:26:18;13.00;99.90
5172;DHT22;2605;49.770;9.868;2023-06-14T03:28:46;13.00;99.90
5172;DHT22;2605;49.770;9.868;2023-06-14T03:31:13;13.00;99.90
5172;DHT22;2605;49.770;9.868;2023-06-14T03:33:39;12.90;99.90
5172;DHT22;2605;49.770;9.868;2023-06-14T03:36:05;12.90;99.90
5172;DHT22;2605;49.770;9.868;2023-06-14T03:38:32;13.00;99.90
5172;DHT22;2605;49.770;9.868;2023-06-14T03:40:58;13.00;99.90
5172;DHT22;2605;49.770;9.868;2023-06-14T03:43:23;13.10;99.90
5172;DHT22;2605;49.770;9.868;2023-06-14T03:45:49;13.10;99.90
5172;DHT22;2605;49.770;9.868;2023-06-14T03:48:14;13.10;99.90
5172;DHT22;2605;49.770;9.868;2023-06-14T03:50:40;13.20;99.90
5172;DHT22;2605;49.770;9.868;2023-06-14T03:53:06;13.20;99.90
5172;DHT22;2605;49.770;9.868;2023-06-14T03:55:31;13.20;99.90
5172;DHT22;2605;49.770;9.868;2023-06-14T03:57:58;13.20;99.90
5172;DHT22;2605;49.770;9.868;2023-06-14T04:00:23;13.30;99.90
5172;DHT22;2605;49.770;9.868;2023-06-14T04:02:49;13.20;99.90
5172;DHT22;2605;49.770;9.868;2023-06-14T04:05:15;13.30;99.90
5172;DHT22;2605;49.770;9.868;2023-06-14T04:07:42;13.40;99.90
5172;DHT22;2605;49.770;9.868;2023-06-14T04:10:10;13.40;99.90
5172;DHT22;2605;49.770;9.868;2023-06-14T04:12:36;13.40;99.90
5172;DHT22;2605;49.770;9.868;2023-06-14T04:15:02;13.50;99.90
5172;DHT22;2605;49.770;9.868;2023-06-14T04:17:28;13.50;99.90
5172;DHT22;2605;49.770;9.868;2023-06-14T04:19:53;13.50;99.90
5172;DHT22;2605;49.770;9.868;2023-06-14T04:22:19;13.50;99.90
5172;DHT22;2605;49.770;9.868;2023-06-14T04:24:44;13.50;99.90
5172;DHT22;2605;49.770;9.868;2023-06-14T04:27:10;13.60;99.90
5172;DHT22;2605;49.770;9.868;2023-06-14T04:29:35;13.50;99.90
5172;DHT22;2605;49.770;9.868;2023-06-14T04:32:01;13.50;99.90
5172;DHT22;2605;49.770;9.868;2023-06-14T04:34:27;13.70;99.90
5172;DHT22;2605;49.770;9.868;2023-06-14T04:36:59;13.70;99.90
5172;DHT22;2605;49.770;9.868;2023-06-14T04:39:26;13.80;99.90
5172;DHT22;2605;49.770;9.868;2023-06-14T04:41:53;13.90;99.90
5172;DHT22;2605;49.770;9.868;2023-06-14T04:44:22;13.90;99.90
5172;DHT22;2605;49.770;9.868;2023-06-14T04:46:56;14.10;99.90
5172;DHT22;2605;49.770;9.868;2023-06-14T04:49:22;14.10;99.90
5172;DHT22;2605;49.770;9.868;2023-06-14T04:51:48;14.20;99.90
5172;DHT22;2605;49.770;9.868;2023-06-14T04:54:22;14.20;99.90
5172;DHT22;2605;49.770;9.868;2023-06-14T04:56:50;14.30;99.90
5172;DHT22;2605;49.770;9.868;2023-06-14T04:59:15;14.40;99.90
5172;DHT22;2605;49.770;9.868;2023-06-14T05:01:42;14.40;99.90
5172;DHT22;2605;49.770;9.868;2023-06-14T05:04:14;14.50;99.90
5172;DHT22;2605;49.770;9.868;2023-06-14T05:06:41;14.50;99.90
5172;DHT22;2605;49.770;9.868;2023-06-14T05:09:06;14.50;99.90
5172;DHT22;2605;49.770;9.868;2023-06-14T05:11:32;14.60;99.90
5172;DHT22;2605;49.770;9.868;2023-06-14T05:13:57;14.60;99.90
5172;DHT22;2605;49.770;9.868;2023-06-14T05:16:23;14.70;99.90
5172;DHT22;2605;49.770;9.868;2023-06-14T05:18:51;14.70;99.90
5172;DHT22;2605;49.770;9.868;2023-06-14T05:21:17;14.80;99.90
5172;DHT22;2605;49.770;9.868;2023-06-14T05:23:44;14.80;99.90
5172;DHT22;2605;49.770;9.868;2023-06-14T05:26:10;14.80;99.90
5172;DHT22;2605;49.770;9.868;2023-06-14T05:28:36;14.90;99.90
5172;DHT22;2605;49.770;9.868;2023-06-14T05:31:01;14.90;99.90
5172;DHT22;2605;49.770;9.868;2023-06-14T05:33:27;14.90;99.90
5172;DHT22;2605;49.770;9.868;2023-06-14T05:35:52;14.90;99.90
5172;DHT22;2605;49.770;9.868;2023-06-14T05:38:18;14.90;99.90
5172;DHT22;2605;49.770;9.868;2023-06-14T05:40:43;15.00;99.90
5172;DHT22;2605;49.770;9.868;2023-06-14T05:43:09;15.00;99.90
5172;DHT22;2605;49.770;9.868;2023-06-14T05:45:35;15.00;99.90
5172;DHT22;2605;49.770;9.868;2023-06-14T05:48:01;15.10;99.90
5172;DHT22;2605;49.770;9.868;2023-06-14T05:50:26;15.10;99.90
5172;DHT22;2605;49.770;9.868;2023-06-14T05:52:53;15.10;99.90
5172;DHT22;2605;49.770;9.868;2023-06-14T05:55:19;15.30;99.90
5172;DHT22;2605;49.770;9.868;2023-06-14T05:57:45;15.60;99.90
5172;DHT22;2605;49.770;9.868;2023-06-14T06:00:11;15.80;99.90
5172;DHT22;2605;49.770;9.868;2023-06-14T06:02:42;15.90;99.90
5172;DHT22;2605;49.770;9.868;2023-06-14T06:05:09;16.00;99.90
5172;DHT22;2605;49.770;9.868;2023-06-14T06:07:35;16.20;99.90
5172;DHT22;2605;49.770;9.868;2023-06-14T06:10:01;16.20;99.90
5172;DHT22;2605;49.770;9.868;2023-06-14T06:12:27;16.40;99.90
5172;DHT22;2605;49.770;9.868;2023-06-14T06:14:52;16.50;99.90
5172;DHT22;2605;49.770;9.868;2023-06-14T06:17:17;16.50;99.90
5172;DHT22;2605;49.770;9.868;2023-06-14T06:19:43;16.70;99.90
5172;DHT22;2605;49.770;9.868;2023-06-14T06:22:09;17.00;99.90
5172;DHT22;2605;49.770;9.868;2023-06-14T06:24:34;17.40;99.90
5172;DHT22;2605;49.770;9.868;2023-06-14T06:27:00;17.50;99.90
5172;DHT22;2605;49.770;9.868;2023-06-14T06:29:26;18.00;99.90
5172;DHT22;2605;49.770;9.868;2023-06-14T06:31:51;18.00;99.90
5172;DHT22;2605;49.770;9.868;2023-06-14T06:34:17;17.80;99.90
5172;DHT22;2605;49.770;9.868;2023-06-14T06:36:42;17.60;99.90
5172;DHT22;2605;49.770;9.868;2023-06-14T06:39:08;17.20;99.90
5172;DHT22;2605;49.770;9.868;2023-06-14T06:41:37;17.20;99.90
5172;DHT22;2605;49.770;9.868;2023-06-14T06:44:05;17.10;99.90
5172;DHT22;2605;49.770;9.868;2023-06-14T06:46:31;17.50;99.90
5172;DHT22;2605;49.770;9.868;2023-06-14T06:48:57;18.20;99.90
5172;DHT22;2605;49.770;9.868;2023-06-14T06:51:22;18.10;99.90
5172;DHT22;2605;49.770;9.868;2023-06-14T06:53:53;18.00;99.90
5172;DHT22;2605;49.770;9.868;2023-06-14T06:56:19;18.00;99.90
5172;DHT22;2605;49.770;9.868;2023-06-14T06:58:45;18.20;99.90
5172;DHT22;2605;49.770;9.868;2023-06-14T07:01:10;18.50;99.90
5172;DHT22;2605;49.770;9.868;2023-06-14T07:03:36;18.90;99.90
5172;DHT22;2605;49.770;9.868;2023-06-14T07:06:02;18.90;99.90
5172;DHT22;2605;49.770;9.868;2023-06-14T07:08:28;19.30;99.90
5172;DHT22;2605;49.770;9.868;2023-06-14T07:10:54;19.70;99.90
5172;DHT22;2605;49.770;9.868;2023-06-14T07:13:19;19.70;99.90
5172;DHT22;2605;49.770;9.868;2023-06-14T07:15:45;19.60;99.90
5172;DHT22;2605;49.770;9.868;2023-06-14T07:18:11;19.10;99.90
5172;DHT22;2605;49.770;9.868;2023-06-14T07:20:37;19.10;99.90
5172;DHT22;2605;49.770;9.868;2023-06-14T07:23:03;19.20;99.90
5172;DHT22;2605;49.770;9.868;2023-06-14T07:25:29;19.20;99.90
5172;DHT22;2605;49.770;9.868;2023-06-14T07:27:55;19.30;99.90
5172;DHT22;2605;49.770;9.868;2023-06-14T07:30:20;19.30;99.90
5172;DHT22;2605;49.770;9.868;2023-06-14T07:32:46;19.30;99.90
5172;DHT22;2605;49.770;9.868;2023-06-14T07:35:11;19.30;99.90
5172;DHT22;2605;49.770;9.868;2023-06-14T07:37:37;19.20;99.90
5172;DHT22;2605;49.770;9.868;2023-06-14T07:40:03;19.40;99.90
5172;DHT22;2605;49.770;9.868;2023-06-14T07:42:33;19.60;99.90
5172;DHT22;2605;49.770;9.868;2023-06-14T07:44:59;19.80;99.90
5172;DHT22;2605;49.770;9.868;2023-06-14T07:47:25;20.00;99.90
5172;DHT22;2605;49.770;9.868;2023-06-14T07:49:50;20.10;99.90
5172;DHT22;2605;49.770;9.868;2023-06-14T07:52:16;20.20;99.90
5172;DHT22;2605;49.770;9.868;2023-06-14T07:54:41;20.30;99.90
5172;DHT22;2605;49.770;9.868;2023-06-14T07:57:07;20.40;99.90
5172;DHT22;2605;49.770;9.868;2023-06-14T07:59:32;20.40;99.90
5172;DHT22;2605;49.770;9.868;2023-06-14T08:01:58;20.40;99.90
5172;DHT22;2605;49.770;9.868;2023-06-14T08:04:23;20.50;99.90
5172;DHT22;2605;49.770;9.868;2023-06-14T08:06:50;20.50;99.90
5172;DHT22;2605;49.770;9.868;2023-06-14T08:09:16;20.60;99.90
5172;DHT22;2605;49.770;9.868;2023-06-14T08:11:41;20.70;99.90
5172;DHT22;2605;49.770;9.868;2023-06-14T08:14:07;20.90;99.90
5172;DHT22;2605;49.770;9.868;2023-06-14T08:16:33;21.00;99.90
5172;DHT22;2605;49.770;9.868;2023-06-14T08:18:58;20.80;99.90
5172;DHT22;2605;49.770;9.868;2023-06-14T08:21:24;20.70;99.90
5172;DHT22;2605;49.770;9.868;2023-06-14T08:23:54;20.80;99.90
5172;DHT22;2605;49.770;9.868;2023-06-14T08:26:20;21.00;99.90
5172;DHT22;2605;49.770;9.868;2023-06-14T08:28:46;20.80;99.90
5172;DHT22;2605;49.770;9.868;2023-06-14T08:31:11;20.90;99.90
5172;DHT22;2605;49.770;9.868;2023-06-14T08:33:38;20.90;99.90
5172;DHT22;2605;49.770;9.868;2023-06-14T08:36:04;21.10;99.90
5172;DHT22;2605;49.770;9.868;2023-06-14T08:38:30;21.40;99.90
5172;DHT22;2605;49.770;9.868;2023-06-14T08:40:57;21.50;99.90
5172;DHT22;2605;49.770;9.868;2023-06-14T08:43:23;21.50;99.90
5172;DHT22;2605;49.770;9.868;2023-06-14T08:45:52;21.60;99.90
5172;DHT22;2605;49.770;9.868;2023-06-14T08:48:19;21.60;99.90
5172;DHT22;2605;49.770;9.868;2023-06-14T08:50:47;21.70;99.90
5172;DHT22;2605;49.770;9.868;2023-06-14T08:53:14;21.90;99.90
5172;DHT22;2605;49.770;9.868;2023-06-14T08:55:45;22.20;99.90
5172;DHT22;2605;49.770;9.868;2023-06-14T08:58:13;22.30;99.90
5172;DHT22;2605;49.770;9.868;2023-06-14T09:00:39;22.10;99.90
5172;DHT22;2605;49.770;9.868;2023-06-14T09:03:07;21.90;99.90
5172;DHT22;2605;49.770;9.868;2023-06-14T09:05:38;21.70;99.90
5172;DHT22;2605;49.770;9.868;2023-06-14T09:08:04;21.50;99.90
5172;DHT22;2605;49.770;9.868;2023-06-14T09:10:31;21.60;99.90
5172;DHT22;2605;49.770;9.868;2023-06-14T09:13:00;21.80;99.90
5172;DHT22;2605;49.770;9.868;2023-06-14T09:15:25;21.80;99.90
5172;DHT22;2605;49.770;9.868;2023-06-14T09:17:51;21.80;99.90
5172;DHT22;2605;49.770;9.868;2023-06-14T09:20:17;22.10;99.90
5172;DHT22;2605;49.770;9.868;2023-06-14T09:22:45;22.60;99.90
5172;DHT22;2605;49.770;9.868;2023-06-14T09:25:11;23.30;99.90
5172;DHT22;2605;49.770;9.868;2023-06-14T09:27:40;23.70;99.90
5172;DHT22;2605;49.770;9.868;2023-06-14T09:30:09;24.00;99.90
5172;DHT22;2605;49.770;9.868;2023-06-14T09:32:38;24.20;99.90
5172;DHT22;2605;49.770;9.868;2023-06-14T09:35:08;24.50;99.90
5172;DHT22;2605;49.770;9.868;2023-06-14T09:37:34;24.30;99.90
5172;DHT22;2605;49.770;9.868;2023-06-14T09:40:01;24.40;99.90
5172;DHT22;2605;49.770;9.868;2023-06-14T09:42:26;24.60;99.90
5172;DHT22;2605;49.770;9.868;2023-06-14T09:44:56;24.70;99.90
5172;DHT22;2605;49.770;9.868;2023-06-14T09:47:22;24.80;99.90
5172;DHT22;2605;49.770;9.868;2023-06-14T09:49:49;24.10;99.90
5172;DHT22;2605;49.770;9.868;2023-06-14T09:52:19;23.80;99.90
5172;DHT22;2605;49.770;9.868;2023-06-14T09:54:47;23.50;99.90
5172;DHT22;2605;49.770;9.868;2023-06-14T09:57:15;24.10;99.90
5172;DHT22;2605;49.770;9.868;2023-06-14T09:59:45;24.60;99.90
5172;DHT22;2605;49.770;9.868;2023-06-14T10:02:34;25.30;99.90
5172;DHT22;2605;49.770;9.868;2023-06-14T10:05:07;25.90;99.90
5172;DHT22;2605;49.770;9.868;2023-06-14T10:07:53;26.40;99.90
5172;DHT22;2605;49.770;9.868;2023-06-14T10:10:21;26.30;99.90
5172;DHT22;2605;49.770;9.868;2023-06-14T10:12:47;26.30;99.90
5172;DHT22;2605;49.770;9.868;2023-06-14T10:15:24;26.70;99.90
5172;DHT22;2605;49.770;9.868;2023-06-14T10:17:57;27.00;99.90
5172;DHT22;2605;49.770;9.868;2023-06-14T10:20:37;27.40;99.90
5172;DHT22;2605;49.770;9.868;2023-06-14T10:23:18;27.30;99.90
5172;DHT22;2605;49.770;9.868;2023-06-14T10:25:45;27.00;99.90
5172;DHT22;2605;49.770;9.868;2023-06-14T10:28:18;26.90;99.90
5172;DHT22;2605;49.770;9.868;2023-06-14T10:33:33;26.00;99.90
5172;DHT22;2605;49.770;9.868;2023-06-14T10:36:10;26.10;99.90
5172;DHT22;2605;49.770;9.868;2023-06-14T10:38:37;26.10;99.90
5172;DHT22;2605;49.770;9.868;2023-06-14T10:41:04;26.10;99.90
5172;DHT22;2605;49.770;9.868;2023-06-14T10:43:30;26.00;99.90
5172;DHT22;2605;49.770;9.868;2023-06-14T10:46:18;25.70;99.90
5172;DHT22;2605;49.770;9.868;2023-06-14T10:48:44;25.40;99.90
5172;DHT22;2605;49.770;9.868;2023-06-14T10:51:19;25.30;99.90
5172;DHT22;2605;49.770;9.868;2023-06-14T10:53:47;25.30;99.90
5172;DHT22;2605;49.770;9.868;2023-06-14T10:56:33;25.40;99.90
5172;DHT22;2605;49.770;9.868;2023-06-14T10:58:59;25.20;99.90
5172;DHT22;2605;49.770;9.868;2023-06-14T11:01:36;25.50;99.90
5172;DHT22;2605;49.770;9.868;2023-06-14T11:04:10;25.90;99.90
5172;DHT22;2605;49.770;9.868;2023-06-14T11:11:54;25.50;99.90
5172;DHT22;2605;49.770;9.868;2023-06-14T11:14:21;25.00;99.90
5172;DHT22;2605;49.770;9.868;2023-06-14T11:16:50;24.90;99.90
5172;DHT22;2605;49.770;9.868;2023-06-14T11:19:16;25.00;99.90
5172;DHT22;2605;49.770;9.868;2023-06-14T11:21:42;25.20;99.90
5172;DHT22;2605;49.770;9.868;2023-06-14T11:24:11;25.00;99.90
5172;DHT22;2605;49.770;9.868;2023-06-14T11:26:37;25.00;99.90
5172;DHT22;2605;49.770;9.868;2023-06-14T11:29:03;24.40;99.90
5172;DHT22;2605;49.770;9.868;2023-06-14T11:31:29;24.60;99.90
5172;DHT22;2605;49.770;9.868;2023-06-14T11:33:56;25.30;99.90
5172;DHT22;2605;49.770;9.868;2023-06-14T11:36:23;25.80;99.90
5172;DHT22;2605;49.770;9.868;2023-06-14T11:38:48;26.10;99.90
5172;DHT22;2605;49.770;9.868;2023-06-14T11:41:14;26.10;99.90
5172;DHT22;2605;49.770;9.868;2023-06-14T11:43:40;26.20;99.90
5172;DHT22;2605;49.770;9.868;2023-06-14T11:46:12;26.20;99.90
5172;DHT22;2605;49.770;9.868;2023-06-14T11:48:41;26.40;99.90
5172;DHT22;2605;49.770;9.868;2023-06-14T11:51:07;26.20;99.90
5172;DHT22;2605;49.770;9.868;2023-06-14T11:53:33;25.50;99.90
5172;DHT22;2605;49.770;9.868;2023-06-14T11:55:59;25.50;99.90
5172;DHT22;2605;49.770;9.868;2023-06-14T11:58:25;25.90;99.90
5172;DHT22;2605;49.770;9.868;2023-06-14T12:00:52;26.50;99.90
5172;DHT22;2605;49.770;9.868;2023-06-14T12:03:23;26.80;99.90
5172;DHT22;2605;49.770;9.868;2023-06-14T12:05:49;27.20;99.90
5172;DHT22;2605;49.770;9.868;2023-06-14T12:08:14;27.60;99.90
5172;DHT22;2605;49.770;9.868;2023-06-14T12:10:42;27.60;99.90
5172;DHT22;2605;49.770;9.868;2023-06-14T12:13:09;27.70;99.90
5172;DHT22;2605;49.770;9.868;2023-06-14T12:15:35;28.20;99.90
5172;DHT22;2605;49.770;9.868;2023-06-14T12:18:00;28.40;99.90
5172;DHT22;2605;49.770;9.868;2023-06-14T12:20:29;28.20;99.90
5172;DHT22;2605;49.770;9.868;2023-06-14T12:22:58;28.00;99.90
5172;DHT22;2605;49.770;9.868;2023-06-14T12:27:54;28.10;99.90
5172;DHT22;2605;49.770;9.868;2023-06-14T12:30:20;28.00;99.90
5172;DHT22;2605;49.770;9.868;2023-06-14T12:32:46;27.80;99.90
5172;DHT22;2605;49.770;9.868;2023-06-14T12:35:11;27.80;99.90
5172;DHT22;2605;49.770;9.868;2023-06-14T12:37:37;27.80;99.90
5172;DHT22;2605;49.770;9.868;2023-06-14T12:40:03;28.00;99.90
5172;DHT22;2605;49.770;9.868;2023-06-14T12:42:31;28.20;99.90
5172;DHT22;2605;49.770;9.868;2023-06-14T12:44:56;28.60;99.90
5172;DHT22;2605;49.770;9.868;2023-06-14T12:47:22;29.10;99.90
5172;DHT22;2605;49.770;9.868;2023-06-14T12:49:50;29.20;99.90
5172;DHT22;2605;49.770;9.868;2023-06-14T12:52:16;29.40;99.90
5172;DHT22;2605;49.770;9.868;2023-06-14T12:54:42;29.10;99.90
5172;DHT22;2605;49.770;9.868;2023-06-14T12:57:07;28.90;99.90
5172;DHT22;2605;49.770;9.868;2023-06-14T12:59:33;29.20;99.90
5172;DHT22;2605;49.770;9.868;2023-06-14T13:02:16;29.20;99.90
5172;DHT22;2605;49.770;9.868;2023-06-14T13:04:43;28.90;99.90
5172;DHT22;2605;49.770;9.868;2023-06-14T13:07:08;29.00;99.90
5172;DHT22;2605;49.770;9.868;2023-06-14T13:09:36;28.90;99.90
5172;DHT22;2605;49.770;9.868;2023-06-14T13:12:01;28.60;99.90
5172;DHT22;2605;49.770;9.868;2023-06-14T13:14:27;28.50;99.90
5172;DHT22;2605;49.770;9.868;2023-06-14T13:16:52;28.20;99.90
5172;DHT22;2605;49.770;9.868;2023-06-14T13:19:18;28.30;99.90
5172;DHT22;2605;49.770;9.868;2023-06-14T13:21:43;28.10;99.90
5172;DHT22;2605;49.770;9.868;2023-06-14T13:24:12;28.20;99.90
5172;DHT22;2605;49.770;9.868;2023-06-14T13:26:37;28.00;99.90
5172;DHT22;2605;49.770;9.868;2023-06-14T13:29:03;27.70;99.90
5172;DHT22;2605;49.770;9.868;2023-06-14T13:31:29;27.80;99.90
5172;DHT22;2605;49.770;9.868;2023-06-14T13:33:54;27.90;99.90
5172;DHT22;2605;49.770;9.868;2023-06-14T13:36:20;28.00;99.90
5172;DHT22;2605;49.770;9.868;2023-06-14T13:38:45;28.20;99.90
5172;DHT22;2605;49.770;9.868;2023-06-14T13:41:11;28.20;99.90
5172;DHT22;2605;49.770;9.868;2023-06-14T13:43:36;28.10;99.90
5172;DHT22;2605;49.770;9.868;2023-06-14T13:46:02;28.10;99.90
5172;DHT22;2605;49.770;9.868;2023-06-14T13:48:27;28.00;99.90
5172;DHT22;2605;49.770;9.868;2023-06-14T13:50:53;28.40;99.90
5172;DHT22;2605;49.770;9.868;2023-06-14T13:53:18;29.20;99.90
5172;DHT22;2605;49.770;9.868;2023-06-14T13:55:44;29.30;99.90
5172;DHT22;2605;49.770;9.868;2023-06-14T13:58:09;31.80;99.90
5172;DHT22;2605;49.770;9.868;2023-06-14T14:00:35;34.20;99.90
5172;DHT22;2605;49.770;9.868;2023-06-14T14:03:05;36.30;99.30
5172;DHT22;2605;49.770;9.868;2023-06-14T14:05:31;37.30;95.40
5172;DHT22;2605;49.770;9.868;2023-06-14T14:07:56;36.40;96.10
5172;DHT22;2605;49.770;9.868;2023-06-14T14:10:23;37.30;95.80
5172;DHT22;2605;49.770;9.868;2023-06-14T14:12:53;38.50;94.50
5172;DHT22;2605;49.770;9.868;2023-06-14T14:15:20;37.80;92.60
5172;DHT22;2605;49.770;9.868;2023-06-14T14:17:45;35.60;91.90
5172;DHT22;2605;49.770;9.868;2023-06-14T14:20:12;34.20;92.60
5172;DHT22;2605;49.770;9.868;2023-06-14T14:22:41;35.00;93.00
5172;DHT22;2605;49.770;9.868;2023-06-14T14:25:07;34.20;92.30
5172;DHT22;2605;49.770;9.868;2023-06-14T14:27:32;33.00;93.00
5172;DHT22;2605;49.770;9.868;2023-06-14T14:29:58;32.40;92.70
5172;DHT22;2605;49.770;9.868;2023-06-14T14:32:23;32.30;93.50
5172;DHT22;2605;49.770;9.868;2023-06-14T14:34:48;31.80;93.10
5172;DHT22;2605;49.770;9.868;2023-06-14T14:37:14;31.70;93.20
5172;DHT22;2605;49.770;9.868;2023-06-14T14:39:40;31.50;94.70
5172;DHT22;2605;49.770;9.868;2023-06-14T14:42:06;31.60;94.20
5172;DHT22;2605;49.770;9.868;2023-06-14T14:44:33;31.70;94.30
5172;DHT22;2605;49.770;9.868;2023-06-14T14:46:58;31.70;94.80
5172;DHT22;2605;49.770;9.868;2023-06-14T14:49:23;32.70;94.70
5172;DHT22;2605;49.770;9.868;2023-06-14T14:51:49;37.00;93.10
5172;DHT22;2605;49.770;9.868;2023-06-14T14:54:14;40.80;90.80
5172;DHT22;2605;49.770;9.868;2023-06-14T14:56:40;43.50;79.60
5172;DHT22;2605;49.770;9.868;2023-06-14T14:59:05;45.20;69.70
5172;DHT22;2605;49.770;9.868;2023-06-14T15:01:31;46.70;64.80
5172;DHT22;2605;49.770;9.868;2023-06-14T15:03:56;47.60;55.90
5172;DHT22;2605;49.770;9.868;2023-06-14T15:06:22;47.70;52.70
5172;DHT22;2605;49.770;9.868;2023-06-14T15:08:47;46.90;52.40
5172;DHT22;2605;49.770;9.868;2023-06-14T15:11:13;46.70;53.20
5172;DHT22;2605;49.770;9.868;2023-06-14T15:13:38;43.70;54.00
5172;DHT22;2605;49.770;9.868;2023-06-14T15:16:04;42.00;57.10
5172;DHT22;2605;49.770;9.868;2023-06-14T15:18:29;39.50;59.70
5172;DHT22;2605;49.770;9.868;2023-06-14T15:20:55;37.00;64.90
5172;DHT22;2605;49.770;9.868;2023-06-14T15:23:20;34.90;70.00
5172;DHT22;2605;49.770;9.868;2023-06-14T15:25:47;33.60;73.20
5172;DHT22;2605;49.770;9.868;2023-06-14T15:28:13;32.70;77.70
5172;DHT22;2605;49.770;9.868;2023-06-14T15:30:39;32.20;81.90
5172;DHT22;2605;49.770;9.868;2023-06-14T15:33:04;32.00;85.50
5172;DHT22;2605;49.770;9.868;2023-06-14T15:35:30;32.10;86.70
5172;DHT22;2605;49.770;9.868;2023-06-14T15:37:55;32.20;88.70
5172;DHT22;2605;49.770;9.868;2023-06-14T15:40:21;32.20;89.90
5172;DHT22;2605;49.770;9.868;2023-06-14T15:42:46;34.10;88.40
5172;DHT22;2605;49.770;9.868;2023-06-14T15:45:12;34.60;84.60
5172;DHT22;2605;49.770;9.868;2023-06-14T15:47:38;37.70;80.20
5172;DHT22;2605;49.770;9.868;2023-06-14T15:50:03;39.90;73.70
5172;DHT22;2605;49.770;9.868;2023-06-14T15:52:33;40.90;67.90
5172;DHT22;2605;49.770;9.868;2023-06-14T15:54:58;40.10;66.40
5172;DHT22;2605;49.770;9.868;2023-06-14T15:57:24;39.70;66.70
5172;DHT22;2605;49.770;9.868;2023-06-14T15:59:49;40.40;66.70
5172;DHT22;2605;49.770;9.868;2023-06-14T16:02:15;39.20;67.50
5172;DHT22;2605;49.770;9.868;2023-06-14T16:04:40;38.40;70.30
5172;DHT22;2605;49.770;9.868;2023-06-14T16:07:06;37.70;71.60
5172;DHT22;2605;49.770;9.868;2023-06-14T16:09:34;36.80;71.60